• Join FlightAware (Why Join?)
  • Login
  • US Flag 
Gobble Gobble! 
07:25PM EST


 

Airport Tracker/Info


-or-


 

Live Flight TrackerFlight Track Log ✈ CCA4488 ✈ 05-Oct-2013 ✈ ZUJZ / JZH - ZUUU / CTU

Flight Track Log - Related Links

Times and Time Zones

All times are in EDT time to prevent confusion due to time zone crossing. See the CCA4488 flight status page for this flight to view local times or setup timezone preferences in your user account.

Time Position Orientation Groundspeed Altitude Reporting Facility
EDT Latitude Longitude Course Direction KTS MPH feet Rate Location/Type
08:20PM 32.5610 104.2460 173° South 462 532 24,600  Level FlightAware
08:20PM 32.4940 104.2500 177° South 464 534 24,600  Level FlightAware
08:21PM 32.4170 104.2560 176° South 466 536 24,600  Level FlightAware
08:21PM 32.3390 104.2610 177° South 465 535 24,600  Level FlightAware
08:22PM 32.2630 104.2650 177° South 466 536 24,600  Level FlightAware
08:23PM 32.1840 104.2690 178° South 467 537 24,600  Level FlightAware
08:23PM 32.1130 104.2730 177° South 467 537 24,600  Level FlightAware
08:24PM 32.0350 104.2770 178° South 466 536 24,600  Level FlightAware
08:24PM 31.9590 104.2800 178° South 461 531 24,600  Level FlightAware
08:25PM 31.8870 104.2840 177° South 462 532 24,600  Level FlightAware
08:26PM 31.8100 104.2880 177° South 462 532 24,600  Level FlightAware
08:26PM 31.7320 104.2920 178° South 463 533 24,600  Level FlightAware
08:27PM 31.6630 104.2950 178° South 464 534 24,600 -120 Level FlightAware
08:27PM 31.5860 104.2990 177° South 464 534 24,500 -540 Descending FlightAware
08:28PM 31.5100 104.3030 177° South 458 527 24,000 -960 Descending FlightAware
08:28PM 31.4360 104.3060 178° South 454 522 23,400 -1,260 Descending FlightAware
08:29PM 31.3650 104.3100 177° South 449 517 22,600 -1,740 Descending FlightAware
08:30PM 31.2900 104.3130 178° South 443 510 21,400 -1,800 Descending FlightAware
08:30PM 31.2470 104.3100 183° South 428 493 20,900 -1,320 Descending FlightAware
08:30PM 31.2170 104.3000 196° South 420 483 20,600 -1,080 Descending FlightAware
08:31PM 31.1870 104.2790 211° Southwest 415 478 20,300 -1,020 Descending FlightAware
08:31PM 31.1330 104.2210 223° Southwest 418 481 19,700 -1,080 Descending FlightAware
08:32PM 31.0900 104.1740 223° Southwest 417 480 19,100 -1,380 Descending FlightAware
08:32PM 31.0380 104.1160 224° Southwest 416 479 18,200 -1,500 Descending FlightAware
08:33PM 30.9900 104.0630 223° Southwest 407 468 17,300 -1,500 Descending FlightAware
08:33PM 30.9440 104.0130 223° Southwest 401 461 16,500 -1,500 Descending FlightAware
08:34PM 30.8950 103.9590 223° Southwest 400 460 15,600 -1,500 Descending FlightAware
08:35PM 30.8480 103.9060 224° Southwest 388 447 14,700 -1,560 Descending FlightAware
08:35PM 30.8070 103.8600 224° Southwest 384 442 13,900 -1,500 Descending FlightAware
08:36PM 30.7600 103.8090 223° Southwest 382 440 13,000 -1,380 Descending FlightAware
08:36PM 30.7130 103.7580 223° Southwest 357 411 12,200 -1,260 Descending FlightAware
08:37PM 30.6980 103.7430 221° Southwest 348 400 12,000 -840 Descending FlightAware
08:37PM 30.6840 103.7360 203° Southwest 342 394 11,900 -840 Descending FlightAware
08:37PM 30.6660 103.7320 191° South 324 373 11,700 -1,620 Descending FlightAware
08:38PM 30.6140 103.7340 178° South 300 345 10,600 -2,040 Descending FlightAware
08:38PM 30.5870 103.7340 180° South 297 342 9,800 -2,520 Descending FlightAware
08:38PM 30.5570 103.7350 178° South 292 336 8,900 -2,580 Descending FlightAware
08:39PM 30.5290 103.7350 180° South 291 335 8,000 -2,580 Descending FlightAware
08:39PM 30.5030 103.7350 180° South 288 331 7,200 -2,520 Descending FlightAware
08:39PM 30.4840 103.7360 177° South 286 329 6,600 -1,920 Descending FlightAware
08:40PM 30.4570 103.7370 178° South 274 315 6,100 -1,200 Descending FlightAware
08:40PM 30.4320 103.7380 178° South 252 290 5,800 -540 Descending FlightAware
08:40PM 30.4130 103.7380 180° South 239 275 5,800  Level FlightAware
08:40PM 30.3940 103.7390 177° South 222 255 5,800  Level FlightAware
08:41PM 30.3720 103.7400 178° South 212 244 5,800  Level FlightAware
08:41PM 30.3570 103.7400 180° South 211 243 5,800 -360 Level FlightAware
08:41PM 30.3370 103.7410 178° South 211 243 5,600 -780 Descending FlightAware
08:42PM 30.3250 103.7410 180° South 209 241 5,400 -900 Descending FlightAware
08:42PM 30.3180 103.7440 160° South 208 239 5,300 -780 Descending FlightAware
08:42PM 30.3110 103.7490 148° Southeast 206 237 5,200 -780 Descending FlightAware
08:42PM 30.3070 103.7560 123° Southeast 204 235 5,100 -900 Descending FlightAware
08:42PM 30.3000 103.7760 112° Southeast 202 232 4,800 -780 Descending FlightAware
08:43PM 30.2940 103.7960 109° East 200 230 4,600 -660 Descending FlightAware
08:43PM 30.2920 103.8040 106° East 200 230 4,500 -1,140 Descending FlightAware
08:43PM 30.2910 103.8080 106° East 202 232 4,400 -840 Descending FlightAware
08:43PM 30.3020 103.8310 61° Northeast 196 226 4,100 -780 Descending FlightAware
08:43PM 30.3070 103.8360 41° Northeast 195 224 4,000 -660 Descending FlightAware
08:44PM 30.3170 103.8420 27° Northeast 194 223 3,900 -420 Descending FlightAware
08:44PM 30.3320 103.8500 25° Northeast 201 231 3,800 -180 Descending FlightAware
08:44PM 30.3540 103.8600 21° North 195 224 3,800  Level FlightAware
08:45PM 30.3700 103.8670 21° North 195 224 3,800  Level FlightAware
08:45PM 30.3870 103.8750 22° Northeast 192 221 3,800  Level FlightAware
08:45PM 30.4000 103.8810 22° Northeast 175 201 3,800 -180 Level FlightAware
08:46PM 30.4140 103.8880 23° Northeast 158 182 3,700 -480 Descending FlightAware
08:46PM 30.4270 103.8940 22° Northeast 148 170 3,500 -780 Descending FlightAware
08:46PM 30.4400 103.9000 22° Northeast 140 161 3,200 -840 Descending FlightAware
08:47PM 30.4540 103.9060 20° North 135 155 2,900 -720 Descending FlightAware
08:47PM 30.4650 103.9110 21° North 137 158 2,700 -600 Descending FlightAware
08:47PM 30.4780 103.9170 22° Northeast 136 157 2,500 -780 Descending FlightAware
08:48PM 30.4890 103.9220 21° North 135 155 2,200 -720 Descending FlightAware
08:48PM 30.5020 103.9290 25° Northeast 135 155 2,000 -660 Descending FlightAware
08:48PM 30.5160 103.9350 20° North 134 154 1,700 -480 Descending FlightAware
08:49PM 30.5330 103.9430 22° Northeast 134 154 1,600 -240 Descending FlightAware